Sincerity Ace — 3FFD7 — position and weather

sailwx.info

Track history (hours):
 
Tides and Currents Weather Stations Pressure Air Temp Water Temp Dewpoint Dewpoint Depression Visibility Wind Speed Wind Dir Waves Ship Positions

Sincerity Ace

Last reported at 2017-Oct-18 14:59 UTC. Time now 2017-Oct-18 15:07 UTC.
Position N 37°45' W 076°11'.

Length 200 m; draft 8.1 m.

Type: Cargo ship. MMSI: 351690000.

Date/timePositionNaut miles runAvg speedWind from/ knotsBaromVisibWave heightAir tempDewpointWater temp
2017-Oct-18 14:59N 37°45' W 076°11'1717.4
2017-Oct-18 14:01N 37°29' W 076°04'1118.6
2017-Oct-18 13:24N 37°18' W 076°07'918.7
2017-Oct-18 12:54N 37°08' W 076°09'819.1
2017-Oct-18 12:30N 37°02' W 076°04'815.2
2017-Oct-18 12:00N 36°56' W 075°57'510.3
2017-Oct-18 11:31N 36°53' W 075°52'2613.7
2017-Oct-18 09:36N 36°38' W 075°25'114.7
2017-Oct-18 09:30N 36°37' W 075°24'8 2.2
2017-Oct-18 05:49N 36°34' W 075°15'0 1.2
2017-Oct-18 05:30N 36°34' W 075°15'186 8.0
2017-Oct-17 06:20N 39°28' W 073°51'815.6
2017-Oct-17 05:51N 39°35' W 073°51'715.8
2017-Oct-17 05:24N 39°42' W 073°51'615.7
2017-Oct-17 05:00N 39°48' W 073°51'3112.8
2017-Oct-17 02:35N 40°20' W 073°49'2 9.9
2017-Oct-17 02:25N 40°21' W 073°49'4 9.8
2017-Oct-17 02:00N 40°25' W 073°49'5 9.1
2017-Oct-17 01:30N 40°29' W 073°53'5 9.5
2017-Oct-17 01:00N 40°31' W 073°58'4 9.0
2017-Oct-17 00:30N 40°34' W 074°02'5 9.5
2017-Oct-17 00:00N 40°39' W 074°04'4 7.5
2017-Oct-16 23:30N 40°39' W 074°09'3 5.4
2017-Oct-16 23:00N 40°41' W 074°08'1 1.8
2017-Oct-16 22:29N 40°42' W 074°09'0 0.0
2017-Oct-16 21:59N 40°42' W 074°09'0 0.0
2017-Oct-16 21:29N 40°42' W 074°09'0 0.0
2017-Oct-16 20:58N 40°42' W 074°09'0 0.0
2017-Oct-16 20:29N 40°42' W 074°09'0 0.0
2017-Oct-16 19:59N 40°42' W 074°09'0 0.0
2017-Oct-16 19:29N 40°42' W 074°09'0 0.0
2017-Oct-16 18:58N 40°42' W 074°09'0 0.0
2017-Oct-16 18:29N 40°42' W 074°09'0 0.0
2017-Oct-16 17:56N 40°42' W 074°09'0 0.0
2017-Oct-16 17:29N 40°42' W 074°09'0 0.0
2017-Oct-16 16:58N 40°42' W 074°09'0 0.0
2017-Oct-16 16:28N 40°42' W 074°09'0 0.0
2017-Oct-16 15:59N 40°42' W 074°09'0 0.0
2017-Oct-16 15:28N 40°42' W 074°09'0 0.0
2017-Oct-16 14:58N 40°42' W 074°09'0 0.0
2017-Oct-16 13:59N 40°42' W 074°09'0 0.0
2017-Oct-16 13:28N 40°42' W 074°09'0 0.0
2017-Oct-16 12:58N 40°42' W 074°09'0 0.0
2017-Oct-16 12:28N 40°42' W 074°09'0 0.0
2017-Oct-16 11:58N 40°42' W 074°09'0 0.0
2017-Oct-16 11:28N 40°42' W 074°09'0 0.0
2017-Oct-16 10:58N 40°42' W 074°09'0 0.0
2017-Oct-16 10:28N 40°42' W 074°09'0 0.0
2017-Oct-16 09:58N 40°42' W 074°09'0 0.0
2017-Oct-16 09:28N 40°42' W 074°09'0 0.0
2017-Oct-16 08:58N 40°42' W 074°09'0 0.0
2017-Oct-16 08:28N 40°42' W 074°09'0 0.0
2017-Oct-16 07:58N 40°42' W 074°09'0 0.0
2017-Oct-16 07:28N 40°42' W 074°09'0 0.0
2017-Oct-16 06:58N 40°42' W 074°09'0 0.0
2017-Oct-16 06:28N 40°42' W 074°09'0 0.0
2017-Oct-16 05:58N 40°42' W 074°09'0 0.0
2017-Oct-16 05:28N 40°42' W 074°09'0 0.0
2017-Oct-16 04:58N 40°42' W 074°09'0 0.0
2017-Oct-16 04:28N 40°42' W 074°09'0 0.0
2017-Oct-16 03:58N 40°42' W 074°09'0 0.0
2017-Oct-16 03:28N 40°42' W 074°09'0 0.0
2017-Oct-16 02:58N 40°42' W 074°09'0 0.0
2017-Oct-16 02:28N 40°42' W 074°09'0 0.0
2017-Oct-16 01:58N 40°42' W 074°09'0 0.0
2017-Oct-16 01:28N 40°42' W 074°09'0 0.0
2017-Oct-16 00:59N 40°42' W 074°09'0 0.0
2017-Oct-16 00:29N 40°42' W 074°09'1 1.4
2017-Oct-16 00:01N 40°41' W 074°08'3 5.9
2017-Oct-15 23:31N 40°39' W 074°09'4 7.1
2017-Oct-15 23:01N 40°39' W 074°04'5 9.2
2017-Oct-15 22:31N 40°35' W 074°02'5 9.1
2017-Oct-15 22:01N 40°31' W 073°59'5 9.9
2017-Oct-15 21:31N 40°29' W 073°53'4 8.2
2017-Oct-15 21:01N 40°26' W 073°48'5 9.3
2017-Oct-15 20:30N 40°22' W 073°47'5 9.7
2017-Oct-15 20:00N 40°17' W 073°46'5 9.7
2017-Oct-15 19:29N 40°12' W 073°45'911.6
2017-Oct-15 18:43N 40°03' W 073°44'312.5
2017-Oct-15 18:30N 40°00' W 073°43'713.9
2017-Oct-15 18:00N 39°54' W 073°42'814.3
2017-Oct-15 17:28N 39°46' W 073°39'714.4
2017-Oct-15 17:00N 39°41' W 073°34'3 6.7
2017-Oct-15 16:31N 39°38' W 073°32'1 1.5
2017-Oct-15 15:57N 39°37' W 073°32'1 1.1
2017-Oct-15 15:17N 39°37' W 073°31'0 1.0
2017-Oct-15 14:59N 39°37' W 073°31'1 0.9
2017-Oct-15 14:00N 39°37' W 073°29'0 0.5
2017-Oct-15 13:29N 39°37' W 073°29'2 3.2
2017-Oct-15 12:53N 39°35' W 073°31'513.9
2017-Oct-15 12:30N 39°31' W 073°34'815.5
2017-Oct-15 11:59N 39°24' W 073°40'815.5
2017-Oct-15 11:29N 39°17' W 073°45'715.4
2017-Oct-15 11:00N 39°10' W 073°49'2215.6
2017-Oct-15 09:36N 38°49' W 073°57'316.1
2017-Oct-15 09:24N 38°46' W 073°58'715.9
2017-Oct-15 08:57N 38°40' W 074°01'815.9
2017-Oct-15 08:27N 38°32' W 074°04'715.9
2017-Oct-15 08:00N 38°25' W 074°07'1316.0
2017-Oct-15 07:10N 38°12' W 074°11'415.4
2017-Oct-15 06:56N 38°09' W 074°13'715.1
2017-Oct-15 06:28N 38°03' W 074°17'715.4
2017-Oct-15 06:00N 37°57' W 074°22'815.4
2017-Oct-15 05:30N 37°50' W 074°28'915.3
2017-Oct-15 04:55N 37°43' W 074°34'715.2
2017-Oct-15 04:29N 37°38' W 074°39'714.9
2017-Oct-15 03:59N 37°32' W 074°45'714.7
2017-Oct-15 03:29N 37°26' W 074°50'714.7
2017-Oct-15 03:00N 37°20' W 074°55'714.6
2017-Oct-15 02:30N 37°14' W 075°01'814.6
2017-Oct-15 01:56N 37°07' W 075°07'1914.7
2017-Oct-15 00:39N 36°52' W 075°20'214.8
2017-Oct-15 00:30N 36°50' W 075°22'713.2
2017-Oct-14 23:59N 36°46' W 075°29'715.0
2017-Oct-14 23:30N 36°46' W 075°38'815.3
2017-Oct-14 22:58N 36°49' W 075°47'715.4
2017-Oct-14 22:30N 36°54' W 075°55'612.5
2017-Oct-14 22:01N 36°57' W 076°01'713.1
2017-Oct-14 21:30N 36°59' W 076°09'912.6
2017-Oct-14 20:47N 36°58' W 076°20'310.3
2017-Oct-14 20:31N 36°57' W 076°24'2 0.1
2017-Oct-13 20:57N 36°58' W 076°26'3 7.7
2017-Oct-13 20:30N 36°57' W 076°22'713.6
2017-Oct-13 19:58N 37°00' W 076°13'715.1
2017-Oct-13 19:30N 36°58' W 076°05'612.0
2017-Oct-13 19:00N 36°56' W 075°58'5 9.0
2017-Oct-13 18:30N 36°54' W 075°53'5 8.7
2017-Oct-13 17:57N 36°51' W 075°48'348 9.9
2017-Oct-12 06:48N 31°45' W 079°09'617.7
2017-Oct-12 06:27N 31°41' W 079°14'1217.3
2017-Oct-12 05:45N 31°33' W 079°25'1816.8
2017-Oct-12 04:40N 31°21' W 079°41'616.9
2017-Oct-12 04:19N 31°17' W 079°46'516.8
2017-Oct-12 04:00N 31°13' W 079°51'  
Track history (hours):
 
Tides and Currents Weather Stations Pressure Air Temp Water Temp Dewpoint Dewpoint Depression Visibility Wind Speed Wind Dir Waves Ship Positions

Sincerity Ace

Last reported at 2017-Oct-18 14:59 UTC. Time now 2017-Oct-18 15:07 UTC.
Position N 37°45' W 076°11'.

Length 200 m; draft 8.1 m.

Type: Cargo ship. MMSI: 351690000.

Date/timePositionNaut miles runAvg speedWind from/ knotsBaromVisibWave heightAir tempDewpointWater temp
2017-Oct-18 14:59N 37°45' W 076°11'1717.4
2017-Oct-18 14:01N 37°29' W 076°04'1118.6
2017-Oct-18 13:24N 37°18' W 076°07'918.7
2017-Oct-18 12:54N 37°08' W 076°09'819.1
2017-Oct-18 12:30N 37°02' W 076°04'815.2
2017-Oct-18 12:00N 36°56' W 075°57'510.3
2017-Oct-18 11:31N 36°53' W 075°52'2613.7
2017-Oct-18 09:36N 36°38' W 075°25'114.7
2017-Oct-18 09:30N 36°37' W 075°24'8 2.2
2017-Oct-18 05:49N 36°34' W 075°15'0 1.2
2017-Oct-18 05:30N 36°34' W 075°15'186 8.0
2017-Oct-17 06:20N 39°28' W 073°51'815.6
2017-Oct-17 05:51N 39°35' W 073°51'715.8
2017-Oct-17 05:24N 39°42' W 073°51'615.7
2017-Oct-17 05:00N 39°48' W 073°51'3112.8
2017-Oct-17 02:35N 40°20' W 073°49'2 9.9
2017-Oct-17 02:25N 40°21' W 073°49'4 9.8
2017-Oct-17 02:00N 40°25' W 073°49'5 9.1
2017-Oct-17 01:30N 40°29' W 073°53'5 9.5
2017-Oct-17 01:00N 40°31' W 073°58'4 9.0
2017-Oct-17 00:30N 40°34' W 074°02'5 9.5
2017-Oct-17 00:00N 40°39' W 074°04'4 7.5
2017-Oct-16 23:30N 40°39' W 074°09'3 5.4
2017-Oct-16 23:00N 40°41' W 074°08'1 1.8
2017-Oct-16 22:29N 40°42' W 074°09'0 0.0
2017-Oct-16 21:59N 40°42' W 074°09'0 0.0
2017-Oct-16 21:29N 40°42' W 074°09'0 0.0
2017-Oct-16 20:58N 40°42' W 074°09'0 0.0
2017-Oct-16 20:29N 40°42' W 074°09'0 0.0
2017-Oct-16 19:59N 40°42' W 074°09'0 0.0
2017-Oct-16 19:29N 40°42' W 074°09'0 0.0
2017-Oct-16 18:58N 40°42' W 074°09'0 0.0
2017-Oct-16 18:29N 40°42' W 074°09'0 0.0
2017-Oct-16 17:56N 40°42' W 074°09'0 0.0
2017-Oct-16 17:29N 40°42' W 074°09'0 0.0
2017-Oct-16 16:58N 40°42' W 074°09'0 0.0
2017-Oct-16 16:28N 40°42' W 074°09'0 0.0
2017-Oct-16 15:59N 40°42' W 074°09'0 0.0
2017-Oct-16 15:28N 40°42' W 074°09'0 0.0
2017-Oct-16 14:58N 40°42' W 074°09'0 0.0
2017-Oct-16 13:59N 40°42' W 074°09'0 0.0
2017-Oct-16 13:28N 40°42' W 074°09'0 0.0
2017-Oct-16 12:58N 40°42' W 074°09'0 0.0
2017-Oct-16 12:28N 40°42' W 074°09'0 0.0
2017-Oct-16 11:58N 40°42' W 074°09'0 0.0
2017-Oct-16 11:28N 40°42' W 074°09'0 0.0
2017-Oct-16 10:58N 40°42' W 074°09'0 0.0
2017-Oct-16 10:28N 40°42' W 074°09'0 0.0
2017-Oct-16 09:58N 40°42' W 074°09'0 0.0
2017-Oct-16 09:28N 40°42' W 074°09'0 0.0
2017-Oct-16 08:58N 40°42' W 074°09'0 0.0
2017-Oct-16 08:28N 40°42' W 074°09'0 0.0
2017-Oct-16 07:58N 40°42' W 074°09'0 0.0
2017-Oct-16 07:28N 40°42' W 074°09'0 0.0
2017-Oct-16 06:58N 40°42' W 074°09'0 0.0
2017-Oct-16 06:28N 40°42' W 074°09'0 0.0
2017-Oct-16 05:58N 40°42' W 074°09'0 0.0
2017-Oct-16 05:28N 40°42' W 074°09'0 0.0
2017-Oct-16 04:58N 40°42' W 074°09'0 0.0
2017-Oct-16 04:28N 40°42' W 074°09'0 0.0
2017-Oct-16 03:58N 40°42' W 074°09'0 0.0
2017-Oct-16 03:28N 40°42' W 074°09'0 0.0
2017-Oct-16 02:58N 40°42' W 074°09'0 0.0
2017-Oct-16 02:28N 40°42' W 074°09'0 0.0
2017-Oct-16 01:58N 40°42' W 074°09'0 0.0
2017-Oct-16 01:28N 40°42' W 074°09'0 0.0
2017-Oct-16 00:59N 40°42' W 074°09'0 0.0
2017-Oct-16 00:29N 40°42' W 074°09'1 1.4
2017-Oct-16 00:01N 40°41' W 074°08'3 5.9
2017-Oct-15 23:31N 40°39' W 074°09'4 7.1
2017-Oct-15 23:01N 40°39' W 074°04'5 9.2
2017-Oct-15 22:31N 40°35' W 074°02'5 9.1
2017-Oct-15 22:01N 40°31' W 073°59'5 9.9
2017-Oct-15 21:31N 40°29' W 073°53'4 8.2
2017-Oct-15 21:01N 40°26' W 073°48'5 9.3
2017-Oct-15 20:30N 40°22' W 073°47'5 9.7
2017-Oct-15 20:00N 40°17' W 073°46'5 9.7
2017-Oct-15 19:29N 40°12' W 073°45'911.6
2017-Oct-15 18:43N 40°03' W 073°44'312.5
2017-Oct-15 18:30N 40°00' W 073°43'713.9
2017-Oct-15 18:00N 39°54' W 073°42'814.3
2017-Oct-15 17:28N 39°46' W 073°39'714.4
2017-Oct-15 17:00N 39°41' W 073°34'3 6.7
2017-Oct-15 16:31N 39°38' W 073°32'1 1.5
2017-Oct-15 15:57N 39°37' W 073°32'1 1.1
2017-Oct-15 15:17N 39°37' W 073°31'0 1.0
2017-Oct-15 14:59N 39°37' W 073°31'1 0.9
2017-Oct-15 14:00N 39°37' W 073°29'0 0.5
2017-Oct-15 13:29N 39°37' W 073°29'2 3.2
2017-Oct-15 12:53N 39°35' W 073°31'513.9
2017-Oct-15 12:30N 39°31' W 073°34'815.5
2017-Oct-15 11:59N 39°24' W 073°40'815.5
2017-Oct-15 11:29N 39°17' W 073°45'715.4
2017-Oct-15 11:00N 39°10' W 073°49'2215.6
2017-Oct-15 09:36N 38°49' W 073°57'316.1
2017-Oct-15 09:24N 38°46' W 073°58'715.9
2017-Oct-15 08:57N 38°40' W 074°01'815.9
2017-Oct-15 08:27N 38°32' W 074°04'715.9
2017-Oct-15 08:00N 38°25' W 074°07'1316.0
2017-Oct-15 07:10N 38°12' W 074°11'415.4
2017-Oct-15 06:56N 38°09' W 074°13'715.1
2017-Oct-15 06:28N 38°03' W 074°17'715.4
2017-Oct-15 06:00N 37°57' W 074°22'815.4
2017-Oct-15 05:30N 37°50' W 074°28'915.3
2017-Oct-15 04:55N 37°43' W 074°34'715.2
2017-Oct-15 04:29N 37°38' W 074°39'714.9
2017-Oct-15 03:59N 37°32' W 074°45'714.7
2017-Oct-15 03:29N 37°26' W 074°50'714.7
2017-Oct-15 03:00N 37°20' W 074°55'714.6
2017-Oct-15 02:30N 37°14' W 075°01'814.6
2017-Oct-15 01:56N 37°07' W 075°07'1914.7
2017-Oct-15 00:39N 36°52' W 075°20'214.8
2017-Oct-15 00:30N 36°50' W 075°22'713.2
2017-Oct-14 23:59N 36°46' W 075°29'715.0
2017-Oct-14 23:30N 36°46' W 075°38'815.3
2017-Oct-14 22:58N 36°49' W 075°47'715.4
2017-Oct-14 22:30N 36°54' W 075°55'612.5
2017-Oct-14 22:01N 36°57' W 076°01'713.1
2017-Oct-14 21:30N 36°59' W 076°09'912.6
2017-Oct-14 20:47N 36°58' W 076°20'310.3
2017-Oct-14 20:31N 36°57' W 076°24'2 0.1
2017-Oct-13 20:57N 36°58' W 076°26'3 7.7
2017-Oct-13 20:30N 36°57' W 076°22'713.6
2017-Oct-13 19:58N 37°00' W 076°13'715.1
2017-Oct-13 19:30N 36°58' W 076°05'612.0
2017-Oct-13 19:00N 36°56' W 075°58'5 9.0
2017-Oct-13 18:30N 36°54' W 075°53'5 8.7
2017-Oct-13 17:57N 36°51' W 075°48'348 9.9
2017-Oct-12 06:48N 31°45' W 079°09'617.7
2017-Oct-12 06:27N 31°41' W 079°14'1217.3
2017-Oct-12 05:45N 31°33' W 079°25'1816.8
2017-Oct-12 04:40N 31°21' W 079°41'616.9
2017-Oct-12 04:19N 31°17' W 079°46'516.8
2017-Oct-12 04:00N 31°13' W 079°51'  

Dump ship's entire track history